Main page
METAR-TAF:

METAR-TAF

Airports :

Kaunas Airport

Kaunas, Lithuania

latitude: 54-54N, longitude: 023-55-12E, elevation: 77 m

Current weather observation

The report was made 15 minutes ago, at 13:20 UTC
Wind 10 kt from the North/Northeast, varying between North/Northwest and East/Northeast
Temperature 24°C
Humidity 38%
Pressure 1023 hPa
Visibility 10 km or more
no clouds below 1500 m and no cumulonimbus

METAR: EYKA 241320Z 03010KT 340V070 CAVOK 24/09 Q1023

Time: 16:35 (13:35 UTC)

Forecast

The report was made 2 hours and 33 minutes ago, at 11:02 UTC
Forecast valid from 24 at 12 UTC to 25 at 12 UTC
Wind 10 kt from the North/Northeast
Visibility: 9000 m
Temporary
from 24 at 12 UTC to 24 at 18 UTC
Scattered clouds at a height of 3000 ft, Cumulonimbus.

TAF: EYKA 241102Z 2412/2512 02010KT 9000 NSC TEMPO 2412/2418 SCT030CB

Weather observations and forecasts of more than 4000 airports (METAR and TAF reports).

The available stations are represented by yellow and red dots on the map.

Hover mouse over dot to see the name of the station.

Then click to see weather observations and forecasts.

To change the map : click on the green buttons with a black cross to zoom in, on the green button with a dash to zoom out, or on the green arrows for adjacent maps.


METAR-TAF: